createdAt,value
2019-03-09T00:01:05.726Z,2.20
2019-03-09T00:03:33.080Z,2.33
2019-03-09T00:06:00.422Z,1.98
2019-03-09T00:08:27.718Z,2.05
2019-03-09T00:10:55.082Z,2.40
2019-03-09T00:13:22.472Z,2.20
2019-03-09T00:15:49.736Z,2.25
2019-03-09T00:18:17.017Z,2.37
2019-03-09T00:20:44.365Z,2.20
2019-03-09T00:23:22.352Z,2.20
2019-03-09T00:26:09.331Z,2.15
2019-03-09T00:28:47.167Z,2.10
2019-03-09T00:31:22.322Z,2.17
2019-03-09T00:33:49.606Z,1.92
2019-03-09T00:36:16.902Z,2.27
2019-03-09T00:38:44.238Z,1.92
2019-03-09T00:41:11.596Z,2.35
2019-03-09T00:43:38.882Z,2.20
2019-03-09T00:46:06.227Z,2.10
2019-03-09T00:48:33.808Z,2.05
2019-03-09T00:51:01.105Z,2.60
2019-03-09T00:53:28.388Z,2.20
2019-03-09T00:55:55.746Z,2.25
2019-03-09T00:58:23.025Z,2.50
2019-03-09T01:00:50.346Z,2.17
2019-03-09T01:03:18.959Z,2.05
2019-03-09T01:05:46.303Z,2.30
2019-03-09T01:08:13.585Z,2.20
2019-03-09T01:10:40.886Z,2.02
2019-03-09T01:13:08.159Z,2.10
2019-03-09T01:15:35.430Z,1.98
2019-03-09T01:18:02.734Z,2.10
2019-03-09T01:20:30.081Z,2.22
2019-03-09T01:22:57.374Z,2.33
2019-03-09T01:25:24.715Z,2.75
2019-03-09T01:27:51.991Z,2.10
2019-03-09T01:30:19.731Z,2.25
2019-03-09T01:32:47.106Z,2.40
2019-03-09T01:35:14.383Z,2.62
2019-03-09T01:37:41.662Z,2.70
2019-03-09T01:40:10.729Z,2.20
2019-03-09T01:42:38.007Z,2.20
2019-03-09T01:45:07.156Z,2.30
2019-03-09T01:47:34.434Z,2.25
2019-03-09T01:50:01.723Z,2.25
2019-03-09T01:52:29.045Z,2.17
2019-03-09T01:54:56.390Z,2.00
2019-03-09T01:57:23.669Z,1.82
2019-03-09T01:59:50.958Z,2.40
2019-03-09T02:02:18.311Z,2.05
2019-03-09T02:04:45.604Z,2.20
2019-03-09T02:07:12.950Z,1.98
2019-03-09T02:09:40.231Z,2.02
2019-03-09T02:12:07.726Z,2.02
2019-03-09T02:14:35.002Z,1.98
2019-03-09T02:17:02.288Z,2.10
2019-03-09T02:19:29.578Z,2.25
2019-03-09T02:21:56.866Z,2.12
2019-03-09T02:24:24.154Z,2.02
2019-03-09T02:26:51.439Z,2.10
2019-03-09T02:29:18.725Z,2.30
2019-03-09T02:31:47.298Z,2.37
2019-03-09T02:34:14.623Z,2.47
2019-03-09T02:36:41.999Z,2.55
2019-03-09T02:39:10.967Z,2.12
2019-03-09T02:41:38.343Z,2.02
2019-03-09T02:44:05.623Z,2.02
2019-03-09T02:46:32.899Z,2.40
2019-03-09T02:49:00.175Z,2.92
2019-03-09T02:51:27.457Z,1.77
2019-03-09T02:53:54.832Z,2.00
2019-03-09T02:56:22.190Z,2.05
2019-03-09T02:58:49.486Z,2.27
2019-03-09T03:01:24.408Z,2.20
2019-03-09T03:03:51.771Z,1.85
2019-03-09T03:06:19.115Z,2.10
2019-03-09T03:08:46.415Z,2.00
2019-03-09T03:11:13.693Z,2.20
2019-03-09T03:13:40.978Z,2.20
2019-03-09T03:16:08.296Z,2.00
2019-03-09T03:18:35.651Z,2.10
2019-03-09T03:21:02.953Z,1.80
2019-03-09T03:23:30.306Z,2.17
2019-03-09T03:25:57.639Z,2.35
2019-03-09T03:28:24.962Z,2.10
2019-03-09T03:30:52.311Z,1.92
2019-03-09T03:33:19.595Z,2.20
2019-03-09T03:35:46.894Z,2.30
2019-03-09T03:38:14.181Z,1.85
2019-03-09T03:40:41.455Z,2.27
2019-03-09T03:43:08.733Z,2.00
2019-03-09T03:45:36.055Z,2.22
2019-03-09T03:48:03.354Z,1.95
2019-03-09T03:50:30.703Z,1.77
2019-03-09T03:52:58.082Z,2.22
2019-03-09T03:55:25.595Z,2.27
2019-03-09T03:57:52.965Z,1.87
2019-03-09T04:00:20.328Z,2.30
2019-03-09T04:02:47.698Z,2.20
2019-03-09T04:05:15.043Z,2.25
2019-03-09T04:07:42.455Z,2.20
2019-03-09T04:10:13.650Z,2.00
2019-03-09T04:12:41.999Z,1.98
2019-03-09T04:15:09.469Z,2.20
2019-03-09T04:17:36.839Z,2.10
2019-03-09T04:20:05.565Z,2.02
2019-03-09T04:22:32.921Z,2.08
2019-03-09T04:25:00.493Z,2.17
2019-03-09T04:27:27.891Z,1.77
2019-03-09T04:29:55.229Z,2.25
2019-03-09T04:32:22.684Z,2.12
2019-03-09T04:34:50.048Z,2.30
2019-03-09T04:37:17.392Z,2.10
2019-03-09T04:39:44.704Z,2.15
2019-03-09T04:42:11.976Z,2.08
2019-03-09T04:44:39.273Z,2.00
2019-03-09T04:47:08.066Z,2.08
2019-03-09T04:49:35.437Z,2.00
2019-03-09T04:52:02.722Z,2.10
2019-03-09T04:54:30.047Z,2.10
2019-03-09T04:56:57.323Z,2.70
2019-03-09T04:59:24.603Z,1.90
2019-03-09T05:01:51.911Z,1.95
2019-03-09T05:04:26.930Z,2.00
2019-03-09T05:06:54.282Z,2.00
2019-03-09T05:09:28.775Z,1.75
2019-03-09T05:11:56.046Z,2.05
2019-03-09T05:14:23.328Z,2.27
2019-03-09T05:16:50.706Z,1.77
2019-03-09T05:19:18.055Z,1.82
2019-03-09T05:21:45.326Z,2.15
2019-03-09T05:24:12.613Z,1.90
2019-03-09T05:26:39.914Z,2.40
2019-03-09T05:29:07.259Z,2.10
2019-03-09T05:31:34.537Z,1.98
2019-03-09T05:34:01.867Z,2.25
2019-03-09T05:36:29.158Z,2.10
2019-03-09T05:38:56.524Z,2.10
2019-03-09T05:41:23.800Z,2.10
2019-03-09T05:43:51.101Z,2.00
2019-03-09T05:46:18.381Z,2.17
2019-03-09T05:48:45.860Z,2.60
2019-03-09T05:51:13.208Z,2.15
2019-03-09T05:53:40.555Z,2.25
2019-03-09T05:56:07.996Z,2.10
2019-03-09T05:58:35.477Z,2.17
2019-03-09T06:01:02.754Z,2.33
2019-03-09T06:03:32.314Z,2.47
2019-03-09T06:05:59.748Z,2.27
2019-03-09T06:08:27.098Z,2.67
2019-03-09T06:10:54.390Z,1.95
2019-03-09T06:13:21.662Z,2.20
2019-03-09T06:15:49.448Z,2.37
2019-03-09T06:18:16.729Z,2.27
2019-03-09T06:20:44.124Z,2.22
2019-03-09T06:23:11.439Z,2.40
2019-03-09T06:25:38.771Z,2.33
2019-03-09T06:28:06.074Z,2.27
2019-03-09T06:30:33.350Z,2.30
2019-03-09T06:33:20.293Z,2.65
2019-03-09T06:35:52.027Z,2.22
2019-03-09T06:38:38.910Z,2.08
2019-03-09T06:41:07.757Z,2.47
2019-03-09T06:43:35.037Z,2.25
2019-03-09T06:46:02.330Z,2.42
2019-03-09T06:48:29.702Z,3.02
2019-03-09T06:50:56.976Z,2.90
2019-03-09T06:53:24.257Z,3.20
2019-03-09T06:55:51.546Z,3.42
2019-03-09T06:58:18.926Z,3.60
2019-03-09T07:00:46.208Z,4.60
2019-03-09T07:03:13.516Z,3.98
2019-03-09T07:05:40.840Z,4.00
2019-03-09T07:08:08.147Z,3.70
2019-03-09T07:10:35.500Z,4.25
2019-03-09T07:13:02.831Z,3.77
2019-03-09T07:15:31.347Z,3.90
2019-03-09T07:17:59.995Z,4.12
2019-03-09T07:20:27.303Z,4.50
2019-03-09T07:22:54.577Z,4.45
2019-03-09T07:25:22.133Z,3.92
2019-03-09T07:27:59.712Z,3.95
2019-03-09T07:30:27.000Z,5.45
2019-03-09T07:32:54.312Z,4.85
2019-03-09T07:35:21.612Z,4.72
2019-03-09T07:37:48.912Z,4.62
2019-03-09T07:40:16.198Z,4.78
2019-03-09T07:42:43.472Z,5.30
2019-03-09T07:45:12.230Z,5.45
2019-03-09T07:47:39.521Z,5.45
2019-03-09T07:50:08.359Z,4.95
2019-03-09T07:52:36.415Z,6.03
2019-03-09T07:55:04.893Z,6.08
2019-03-09T07:57:32.170Z,6.22
2019-03-09T07:59:59.499Z,5.78
2019-03-09T08:02:26.914Z,5.83
2019-03-09T08:04:54.278Z,6.00
2019-03-09T08:07:21.558Z,6.50
2019-03-09T08:09:48.854Z,7.72
2019-03-09T08:12:16.195Z,6.83
2019-03-09T08:14:43.482Z,7.53
2019-03-09T08:17:10.751Z,7.87
2019-03-09T08:19:38.044Z,8.20
2019-03-09T08:22:05.323Z,7.45
2019-03-09T08:24:32.616Z,7.28
2019-03-09T08:26:59.931Z,7.60
2019-03-09T08:29:28.773Z,6.95
2019-03-09T08:31:56.131Z,6.90
2019-03-09T08:34:23.421Z,6.60
2019-03-09T08:36:50.808Z,6.10
2019-03-09T08:39:18.106Z,6.45
2019-03-09T08:41:45.458Z,5.97
2019-03-09T08:44:12.846Z,6.67
2019-03-09T08:46:40.161Z,6.05
2019-03-09T08:49:07.502Z,5.87
2019-03-09T08:51:34.863Z,5.40
2019-03-09T08:54:02.210Z,5.50
2019-03-09T08:56:29.525Z,5.62
2019-03-09T08:58:56.868Z,5.47
2019-03-09T09:01:24.228Z,5.90
2019-03-09T09:03:51.500Z,5.25
2019-03-09T09:06:18.792Z,5.22
2019-03-09T09:08:46.174Z,5.47
2019-03-09T09:11:14.232Z,5.85
2019-03-09T09:13:41.518Z,5.50
2019-03-09T09:16:08.884Z,5.65
2019-03-09T09:18:36.215Z,4.80
2019-03-09T09:21:03.991Z,5.08
2019-03-09T09:23:31.268Z,4.92
2019-03-09T09:25:58.578Z,5.30
2019-03-09T09:28:26.187Z,5.00
2019-03-09T09:30:53.483Z,5.40
2019-03-09T09:33:20.767Z,5.10
2019-03-09T09:35:48.077Z,4.95
2019-03-09T09:38:15.355Z,5.25
2019-03-09T09:40:42.629Z,4.35
2019-03-09T09:43:09.946Z,5.33
2019-03-09T09:45:37.222Z,4.75
2019-03-09T09:48:04.581Z,4.55
2019-03-09T09:50:31.941Z,4.28
2019-03-09T09:52:59.235Z,4.42
2019-03-09T09:55:26.618Z,5.12
2019-03-09T09:57:53.907Z,4.53
2019-03-09T10:00:25.409Z,4.37
2019-03-09T10:02:52.754Z,4.40
2019-03-09T10:05:20.418Z,4.12
2019-03-09T10:07:47.705Z,4.50
2019-03-09T10:10:16.508Z,4.05
2019-03-09T10:12:43.818Z,4.17
2019-03-09T10:15:18.497Z,4.90
2019-03-09T10:17:46.314Z,4.12
2019-03-09T10:20:13.700Z,4.08
2019-03-09T10:22:41.043Z,3.80
2019-03-09T10:25:09.295Z,4.05
2019-03-09T10:27:36.659Z,3.92
2019-03-09T10:30:11.418Z,4.47
2019-03-09T10:32:38.773Z,4.22
2019-03-09T10:35:06.808Z,3.77
2019-03-09T10:37:34.081Z,4.17
2019-03-09T10:40:01.400Z,3.10
2019-03-09T10:42:28.670Z,3.87
2019-03-09T10:44:55.950Z,3.47
2019-03-09T10:47:23.271Z,3.50
2019-03-09T10:49:50.561Z,3.55
2019-03-09T10:52:17.925Z,3.55
2019-03-09T10:54:45.219Z,3.00
2019-03-09T10:57:12.581Z,3.35
2019-03-09T10:59:39.865Z,3.17
2019-03-09T11:02:12.880Z,3.92
2019-03-09T11:04:52.339Z,3.58
2019-03-09T11:07:23.208Z,3.52
2019-03-09T11:09:50.073Z,3.25
2019-03-09T11:12:17.425Z,2.85
2019-03-09T11:14:44.778Z,3.30
2019-03-09T11:17:12.081Z,3.02
2019-03-09T11:19:39.370Z,3.08
2019-03-09T11:22:06.750Z,3.33
2019-03-09T11:24:34.112Z,3.00
2019-03-09T11:27:01.386Z,3.17
2019-03-09T11:29:28.666Z,3.27
2019-03-09T11:31:55.951Z,3.10
2019-03-09T11:34:23.248Z,3.58
2019-03-09T11:36:50.525Z,3.67
2019-03-09T11:39:17.822Z,3.75
2019-03-09T11:41:45.188Z,4.10
2019-03-09T11:44:12.522Z,3.83
2019-03-09T11:46:39.824Z,3.62
2019-03-09T11:49:07.137Z,3.55
2019-03-09T11:51:34.474Z,3.85
2019-03-09T11:54:01.843Z,4.08
2019-03-09T11:56:29.236Z,3.87
2019-03-09T11:58:56.524Z,3.70
2019-03-09T12:01:23.805Z,3.90
2019-03-09T12:03:51.163Z,3.70
2019-03-09T12:06:18.675Z,3.40
2019-03-09T12:08:47.858Z,3.27
2019-03-09T12:11:19.949Z,2.80
2019-03-09T12:13:49.503Z,3.12
2019-03-09T12:16:19.322Z,2.75
2019-03-09T12:18:48.083Z,2.72
2019-03-09T12:21:16.916Z,2.95
2019-03-09T12:23:45.829Z,2.75
2019-03-09T12:26:14.665Z,3.10
2019-03-09T12:28:43.328Z,3.05
2019-03-09T12:31:12.356Z,3.20
2019-03-09T12:33:41.868Z,3.20
2019-03-09T12:36:10.700Z,3.70
2019-03-09T12:38:38.570Z,3.90
2019-03-09T12:41:08.077Z,3.77
2019-03-09T12:43:35.452Z,3.45
2019-03-09T12:46:02.779Z,3.00
2019-03-09T12:48:30.149Z,3.05
2019-03-09T12:50:57.525Z,2.62
2019-03-09T12:53:25.064Z,2.92
2019-03-09T12:55:52.639Z,3.10
2019-03-09T12:58:20.314Z,2.80
2019-03-09T13:00:48.783Z,3.08
2019-03-09T13:03:16.356Z,2.52
2019-03-09T13:05:43.946Z,2.42
2019-03-09T13:08:12.047Z,2.95
2019-03-09T13:10:39.845Z,2.95
2019-03-09T13:13:08.025Z,3.25
2019-03-09T13:15:35.736Z,3.15
2019-03-09T13:18:03.387Z,2.85
2019-03-09T13:20:31.954Z,3.40
2019-03-09T13:22:59.999Z,3.30
2019-03-09T13:25:27.940Z,3.25
2019-03-09T13:27:55.681Z,3.17
2019-03-09T13:30:24.126Z,2.67
2019-03-09T13:32:51.648Z,3.00
2019-03-09T13:35:19.638Z,2.55
2019-03-09T13:37:48.014Z,3.12
2019-03-09T13:40:16.551Z,2.40
2019-03-09T13:42:43.930Z,2.40
2019-03-09T13:45:12.820Z,2.20
2019-03-09T13:47:40.112Z,3.15
2019-03-09T13:50:08.857Z,2.12
2019-03-09T13:52:36.175Z,2.08
2019-03-09T13:55:04.405Z,2.40
2019-03-09T13:57:31.757Z,2.87
2019-03-09T13:59:59.088Z,2.33
2019-03-09T14:02:26.491Z,2.50
2019-03-09T14:04:54.066Z,2.40
2019-03-09T14:07:21.474Z,2.70
2019-03-09T14:09:48.814Z,2.87
2019-03-09T14:12:16.177Z,2.72
2019-03-09T14:14:43.562Z,3.17
2019-03-09T14:17:10.962Z,3.65
2019-03-09T14:19:38.367Z,3.75
2019-03-09T14:22:05.761Z,3.80
2019-03-09T14:24:33.226Z,3.75
2019-03-09T14:27:00.584Z,4.95
2019-03-09T14:29:28.615Z,4.42
2019-03-09T14:31:55.983Z,5.00
2019-03-09T14:34:23.297Z,4.37
2019-03-09T14:36:50.603Z,3.80
2019-03-09T14:39:17.898Z,3.90
2019-03-09T14:41:45.220Z,4.25
2019-03-09T14:44:12.510Z,4.15
2019-03-09T14:46:39.795Z,4.50
2019-03-09T14:49:07.095Z,3.90
2019-03-09T14:51:34.421Z,4.90
2019-03-09T14:54:01.779Z,4.28
2019-03-09T14:56:29.059Z,4.05
2019-03-09T14:58:56.418Z,3.92
2019-03-09T15:01:23.741Z,4.58
2019-03-09T15:03:51.527Z,4.20
2019-03-09T15:06:18.899Z,3.60
2019-03-09T15:08:46.245Z,3.77
2019-03-09T15:11:13.659Z,3.62
2019-03-09T15:13:41.156Z,3.70
2019-03-09T15:16:08.472Z,3.70
2019-03-09T15:18:35.964Z,3.95
2019-03-09T15:21:03.284Z,4.05
2019-03-09T15:23:30.595Z,3.65
2019-03-09T15:25:57.945Z,4.55
2019-03-09T15:28:25.282Z,3.67
2019-03-09T15:30:52.900Z,3.80
2019-03-09T15:33:21.666Z,4.08
2019-03-09T15:35:49.255Z,3.72
2019-03-09T15:38:16.562Z,3.62
2019-03-09T15:40:43.850Z,3.80
2019-03-09T15:43:11.223Z,3.83
2019-03-09T15:45:38.522Z,4.28
2019-03-09T15:48:05.901Z,3.80
2019-03-09T15:50:33.321Z,3.55
2019-03-09T15:53:00.684Z,3.52
2019-03-09T15:55:28.097Z,3.55
2019-03-09T15:57:55.377Z,3.87
2019-03-09T16:00:23.531Z,3.45
2019-03-09T16:02:50.906Z,3.80
2019-03-09T16:05:18.194Z,3.37
2019-03-09T16:07:45.570Z,3.70
2019-03-09T16:10:14.281Z,3.12
2019-03-09T16:12:41.648Z,3.45
2019-03-09T16:15:10.191Z,3.27
2019-03-09T16:17:37.544Z,3.33
2019-03-09T16:20:06.416Z,3.08
2019-03-09T16:22:33.717Z,3.58
2019-03-09T16:25:00.995Z,3.33
2019-03-09T16:27:28.286Z,3.30
2019-03-09T16:29:55.567Z,3.30
2019-03-09T16:32:22.976Z,3.60
2019-03-09T16:34:50.249Z,3.45
2019-03-09T16:37:17.644Z,3.80
2019-03-09T16:39:44.927Z,3.40
2019-03-09T16:42:12.229Z,3.50
2019-03-09T16:44:39.536Z,3.33
2019-03-09T16:47:06.837Z,2.90
2019-03-09T16:49:34.967Z,3.37
2019-03-09T16:52:02.323Z,3.15
2019-03-09T16:54:29.692Z,3.00
2019-03-09T16:56:57.311Z,3.10
2019-03-09T16:59:24.626Z,2.85
2019-03-09T17:01:51.980Z,2.35
2019-03-09T17:04:19.327Z,3.00
2019-03-09T17:06:46.616Z,2.95
2019-03-09T17:09:13.938Z,2.67
2019-03-09T17:11:41.312Z,2.55
2019-03-09T17:14:08.637Z,2.85
2019-03-09T17:16:35.928Z,2.65
2019-03-09T17:19:03.248Z,2.55
2019-03-09T17:21:30.651Z,2.80
2019-03-09T17:23:57.918Z,2.87
2019-03-09T17:26:25.273Z,3.15
2019-03-09T17:28:52.550Z,2.47
2019-03-09T17:31:19.910Z,3.17
2019-03-09T17:33:47.189Z,3.15
2019-03-09T17:36:14.534Z,2.65
2019-03-09T17:38:41.814Z,2.98
2019-03-09T17:41:09.112Z,2.58
2019-03-09T17:43:36.606Z,2.98
2019-03-09T17:46:03.886Z,3.50
2019-03-09T17:48:31.181Z,2.50
2019-03-09T17:50:58.467Z,2.98
2019-03-09T17:53:25.777Z,2.92
2019-03-09T17:55:53.136Z,2.92
2019-03-09T17:58:20.509Z,2.60
2019-03-09T18:00:48.469Z,3.22
2019-03-09T18:03:15.765Z,3.12
2019-03-09T18:05:43.435Z,2.92
2019-03-09T18:08:10.808Z,2.58
2019-03-09T18:10:45.687Z,3.17
2019-03-09T18:13:12.978Z,2.50
2019-03-09T18:15:40.323Z,2.42
2019-03-09T18:18:07.641Z,2.95
2019-03-09T18:20:34.970Z,2.30
2019-03-09T18:23:02.443Z,2.67
2019-03-09T18:25:29.943Z,2.95
2019-03-09T18:27:57.305Z,2.80
2019-03-09T18:30:24.615Z,2.70
2019-03-09T18:32:51.916Z,2.87
2019-03-09T18:35:19.201Z,2.45
2019-03-09T18:37:46.575Z,2.60
2019-03-09T18:40:14.727Z,2.52
2019-03-09T18:42:42.001Z,2.60
2019-03-09T18:45:13.802Z,2.50
2019-03-09T18:47:41.094Z,2.80
2019-03-09T18:50:08.739Z,2.58
2019-03-09T18:52:36.028Z,2.33
2019-03-09T18:55:03.472Z,2.70
2019-03-09T18:57:30.797Z,2.80
2019-03-09T18:59:58.225Z,2.72
2019-03-09T19:02:25.513Z,3.65
2019-03-09T19:04:52.922Z,4.20
2019-03-09T19:07:20.369Z,3.87
2019-03-09T19:09:47.669Z,3.87
2019-03-09T19:12:15.075Z,3.60
2019-03-09T19:14:42.419Z,4.40
2019-03-09T19:17:10.207Z,3.62
2019-03-09T19:19:37.687Z,4.03
2019-03-09T19:22:05.055Z,4.35
2019-03-09T19:24:32.426Z,4.10
2019-03-09T19:26:59.783Z,4.20
2019-03-09T19:29:27.106Z,3.62
2019-03-09T19:31:54.599Z,3.90
2019-03-09T19:34:22.012Z,3.47
2019-03-09T19:36:49.441Z,3.98
2019-03-09T19:39:16.733Z,3.80
2019-03-09T19:41:44.031Z,3.80
2019-03-09T19:44:11.583Z,3.85
2019-03-09T19:46:38.863Z,3.80
2019-03-09T19:49:06.153Z,3.80
2019-03-09T19:51:37.581Z,4.15
2019-03-09T19:54:04.884Z,3.55
2019-03-09T19:56:32.174Z,3.80
2019-03-09T19:58:59.494Z,3.45
2019-03-09T20:01:26.769Z,3.87
2019-03-09T20:03:54.063Z,3.67
2019-03-09T20:06:21.422Z,3.62
2019-03-09T20:08:48.739Z,3.60
2019-03-09T20:11:16.085Z,3.80
2019-03-09T20:13:43.366Z,3.90
2019-03-09T20:16:10.664Z,3.67
2019-03-09T20:18:38.051Z,4.00
2019-03-09T20:21:05.343Z,3.65
2019-03-09T20:23:32.693Z,3.77
2019-03-09T20:26:03.638Z,4.35
2019-03-09T20:28:30.987Z,3.58
2019-03-09T20:30:58.307Z,3.67
2019-03-09T20:33:26.466Z,3.95
2019-03-09T20:35:54.036Z,3.77
2019-03-09T20:38:21.391Z,3.47
2019-03-09T20:40:48.750Z,3.85
2019-03-09T20:43:16.145Z,3.90
2019-03-09T20:45:43.625Z,3.92
2019-03-09T20:48:10.917Z,4.03
2019-03-09T20:50:38.285Z,3.75
2019-03-09T20:53:05.605Z,3.50
2019-03-09T20:55:32.894Z,3.77
2019-03-09T20:58:00.268Z,3.47
2019-03-09T21:00:27.585Z,3.40
2019-03-09T21:02:54.920Z,3.62
2019-03-09T21:05:22.244Z,3.25
2019-03-09T21:07:49.586Z,3.33
2019-03-09T21:10:17.733Z,3.72
2019-03-09T21:12:55.439Z,3.50
2019-03-09T21:15:22.881Z,3.80
2019-03-09T21:17:50.243Z,4.08
2019-03-09T21:20:17.533Z,3.47
2019-03-09T21:22:44.816Z,3.47
2019-03-09T21:25:12.154Z,3.90
2019-03-09T21:27:39.443Z,3.60
2019-03-09T21:30:07.792Z,3.87
2019-03-09T21:32:35.172Z,3.77
2019-03-09T21:35:02.580Z,3.80
2019-03-09T21:37:29.863Z,3.60
2019-03-09T21:39:57.225Z,3.58
2019-03-09T21:42:26.287Z,3.50
2019-03-09T21:44:53.918Z,3.45
2019-03-09T21:47:21.211Z,3.70
2019-03-09T21:49:48.779Z,3.98
2019-03-09T21:52:16.376Z,3.37
2019-03-09T21:54:43.713Z,3.50
2019-03-09T21:57:10.996Z,3.58
2019-03-09T21:59:38.283Z,3.70
2019-03-09T22:02:06.234Z,3.98
2019-03-09T22:04:33.552Z,3.70
2019-03-09T22:07:00.838Z,3.35
2019-03-09T22:09:28.118Z,3.67
2019-03-09T22:14:43.870Z,3.83
2019-03-09T22:17:11.193Z,3.35
2019-03-09T22:19:38.476Z,3.35
2019-03-09T22:22:06.079Z,3.60
2019-03-09T22:24:33.359Z,3.27
2019-03-09T22:27:00.654Z,3.30
2019-03-09T22:29:27.962Z,3.33
2019-03-09T22:34:40.777Z,3.58
2019-03-09T22:37:08.060Z,3.58
2019-03-09T22:39:35.353Z,3.15
2019-03-09T22:42:02.662Z,3.00
2019-03-09T22:44:29.936Z,3.20
2019-03-09T22:46:57.231Z,2.90
2019-03-09T22:49:24.627Z,3.67
2019-03-09T22:51:51.990Z,3.33
2019-03-09T22:54:19.268Z,3.50
2019-03-09T22:56:46.744Z,3.35
2019-03-09T22:59:14.020Z,3.72
2019-03-09T23:01:41.420Z,3.45
2019-03-09T23:04:08.758Z,3.72
2019-03-09T23:06:36.034Z,3.20
2019-03-09T23:09:04.467Z,3.05
2019-03-09T23:11:31.822Z,3.15
2019-03-09T23:13:59.132Z,2.90
2019-03-09T23:16:26.727Z,2.90
2019-03-09T23:18:54.072Z,3.17
2019-03-09T23:21:21.360Z,3.05
2019-03-09T23:23:48.658Z,3.45
2019-03-09T23:26:16.023Z,3.17
2019-03-09T23:28:43.881Z,2.85
2019-03-09T23:31:11.162Z,3.10
2019-03-09T23:33:38.447Z,3.00
2019-03-09T23:36:05.731Z,3.10
2019-03-09T23:38:33.027Z,3.45
2019-03-09T23:41:00.300Z,3.20
2019-03-09T23:43:27.712Z,3.40
2019-03-09T23:45:54.993Z,3.02
2019-03-09T23:48:22.311Z,3.52
2019-03-09T23:50:49.664Z,3.40
2019-03-09T23:53:16.955Z,3.12
2019-03-09T23:55:44.313Z,3.50
2019-03-09T23:58:11.663Z,3.12
